sensor_id;sensor_type;location;lat;lon;timestamp;P1;durP1;ratioP1;P2;durP2;ratioP2
7503;SDS011;3793;48.136;11.536;2024-02-26T00:00:07;7.97;;;4.20;;
7503;SDS011;3793;48.136;11.536;2024-02-26T00:02:35;4.13;;;3.10;;
7503;SDS011;3793;48.136;11.536;2024-02-26T00:05:03;3.67;;;2.80;;
7503;SDS011;3793;48.136;11.536;2024-02-26T00:07:30;5.37;;;3.70;;
7503;SDS011;3793;48.136;11.536;2024-02-26T00:09:57;5.20;;;3.37;;
7503;SDS011;3793;48.136;11.536;2024-02-26T00:12:23;4.30;;;3.10;;
7503;SDS011;3793;48.136;11.536;2024-02-26T00:14:51;3.63;;;2.63;;
7503;SDS011;3793;48.136;11.536;2024-02-26T00:17:18;3.50;;;2.60;;
7503;SDS011;3793;48.136;11.536;2024-02-26T00:19:45;4.23;;;2.70;;
7503;SDS011;3793;48.136;11.536;2024-02-26T00:22:12;4.80;;;2.67;;
7503;SDS011;3793;48.136;11.536;2024-02-26T00:24:39;6.47;;;2.67;;
7503;SDS011;3793;48.136;11.536;2024-02-26T00:27:06;2.63;;;2.40;;
7503;SDS011;3793;48.136;11.536;2024-02-26T00:29:32;3.00;;;2.30;;
7503;SDS011;3793;48.136;11.536;2024-02-26T00:32:01;4.87;;;2.63;;
7503;SDS011;3793;48.136;11.536;2024-02-26T00:34:27;3.93;;;2.67;;
7503;SDS011;3793;48.136;11.536;2024-02-26T00:36:54;2.47;;;2.20;;
7503;SDS011;3793;48.136;11.536;2024-02-26T00:39:20;3.57;;;2.50;;
7503;SDS011;3793;48.136;11.536;2024-02-26T00:41:47;4.80;;;2.77;;
7503;SDS011;3793;48.136;11.536;2024-02-26T00:44:14;3.57;;;2.53;;
7503;SDS011;3793;48.136;11.536;2024-02-26T00:46:40;3.83;;;2.80;;
7503;SDS011;3793;48.136;11.536;2024-02-26T00:49:08;4.23;;;2.70;;
7503;SDS011;3793;48.136;11.536;2024-02-26T00:51:35;4.37;;;3.50;;
7503;SDS011;3793;48.136;11.536;2024-02-26T00:54:02;4.40;;;2.50;;
7503;SDS011;3793;48.136;11.536;2024-02-26T00:56:28;3.17;;;2.37;;
7503;SDS011;3793;48.136;11.536;2024-02-26T00:58:55;3.30;;;2.67;;
7503;SDS011;3793;48.136;11.536;2024-02-26T01:01:22;3.67;;;2.80;;
7503;SDS011;3793;48.136;11.536;2024-02-26T01:03:48;5.17;;;2.87;;
7503;SDS011;3793;48.136;11.536;2024-02-26T01:06:16;3.47;;;2.70;;
7503;SDS011;3793;48.136;11.536;2024-02-26T01:08:43;3.07;;;2.30;;
7503;SDS011;3793;48.136;11.536;2024-02-26T01:11:10;3.97;;;2.83;;
7503;SDS011;3793;48.136;11.536;2024-02-26T01:13:36;4.60;;;2.70;;
7503;SDS011;3793;48.136;11.536;2024-02-26T01:16:03;3.30;;;2.57;;
7503;SDS011;3793;48.136;11.536;2024-02-26T01:18:30;3.57;;;3.10;;
7503;SDS011;3793;48.136;11.536;2024-02-26T01:20:56;5.33;;;2.97;;
7503;SDS011;3793;48.136;11.536;2024-02-26T01:23:25;3.60;;;2.63;;
7503;SDS011;3793;48.136;11.536;2024-02-26T01:25:51;3.93;;;2.60;;
7503;SDS011;3793;48.136;11.536;2024-02-26T01:28:18;3.03;;;2.40;;
7503;SDS011;3793;48.136;11.536;2024-02-26T01:30:44;2.90;;;2.60;;
7503;SDS011;3793;48.136;11.536;2024-02-26T01:33:11;3.93;;;2.60;;
7503;SDS011;3793;48.136;11.536;2024-02-26T01:35:38;4.07;;;2.43;;
7503;SDS011;3793;48.136;11.536;2024-02-26T01:38:04;5.30;;;3.00;;
7503;SDS011;3793;48.136;11.536;2024-02-26T01:40:33;4.10;;;2.60;;
7503;SDS011;3793;48.136;11.536;2024-02-26T01:42:59;3.33;;;2.83;;
7503;SDS011;3793;48.136;11.536;2024-02-26T01:45:26;4.07;;;2.70;;
7503;SDS011;3793;48.136;11.536;2024-02-26T01:47:53;3.97;;;2.80;;
7503;SDS011;3793;48.136;11.536;2024-02-26T01:50:20;3.83;;;2.53;;
7503;SDS011;3793;48.136;11.536;2024-02-26T01:52:49;4.83;;;2.63;;
7503;SDS011;3793;48.136;11.536;2024-02-26T01:55:16;2.97;;;2.43;;
7503;SDS011;3793;48.136;11.536;2024-02-26T01:57:45;4.10;;;3.63;;
7503;SDS011;3793;48.136;11.536;2024-02-26T02:00:12;2.97;;;2.20;;
7503;SDS011;3793;48.136;11.536;2024-02-26T02:02:39;3.00;;;2.23;;
7503;SDS011;3793;48.136;11.536;2024-02-26T02:05:07;3.17;;;2.70;;
7503;SDS011;3793;48.136;11.536;2024-02-26T02:07:34;3.33;;;2.57;;
7503;SDS011;3793;48.136;11.536;2024-02-26T02:10:02;4.33;;;2.60;;
7503;SDS011;3793;48.136;11.536;2024-02-26T02:12:28;3.23;;;2.57;;
7503;SDS011;3793;48.136;11.536;2024-02-26T02:14:59;3.13;;;2.30;;
7503;SDS011;3793;48.136;11.536;2024-02-26T02:17:26;3.27;;;2.67;;
7503;SDS011;3793;48.136;11.536;2024-02-26T02:19:53;3.00;;;2.40;;
7503;SDS011;3793;48.136;11.536;2024-02-26T02:22:21;3.00;;;2.40;;
7503;SDS011;3793;48.136;11.536;2024-02-26T02:24:48;4.00;;;2.40;;
7503;SDS011;3793;48.136;11.536;2024-02-26T02:27:15;3.50;;;2.30;;
7503;SDS011;3793;48.136;11.536;2024-02-26T02:29:41;6.37;;;2.77;;
7503;SDS011;3793;48.136;11.536;2024-02-26T02:32:08;3.30;;;2.87;;
7503;SDS011;3793;48.136;11.536;2024-02-26T02:34:35;2.90;;;2.60;;
7503;SDS011;3793;48.136;11.536;2024-02-26T02:37:02;4.07;;;2.50;;
7503;SDS011;3793;48.136;11.536;2024-02-26T02:39:30;3.63;;;2.53;;
7503;SDS011;3793;48.136;11.536;2024-02-26T02:41:57;3.27;;;2.50;;
7503;SDS011;3793;48.136;11.536;2024-02-26T02:44:24;3.40;;;2.20;;
7503;SDS011;3793;48.136;11.536;2024-02-26T02:46:50;4.47;;;2.43;;
7503;SDS011;3793;48.136;11.536;2024-02-26T02:49:18;3.70;;;2.70;;
7503;SDS011;3793;48.136;11.536;2024-02-26T02:51:45;2.93;;;2.20;;
7503;SDS011;3793;48.136;11.536;2024-02-26T02:54:11;4.07;;;2.50;;
7503;SDS011;3793;48.136;11.536;2024-02-26T02:56:39;3.27;;;2.70;;
7503;SDS011;3793;48.136;11.536;2024-02-26T02:59:06;2.90;;;2.53;;
7503;SDS011;3793;48.136;11.536;2024-02-26T03:01:33;2.83;;;2.53;;
7503;SDS011;3793;48.136;11.536;2024-02-26T03:03:59;2.70;;;2.23;;
7503;SDS011;3793;48.136;11.536;2024-02-26T03:06:26;3.50;;;2.40;;
7503;SDS011;3793;48.136;11.536;2024-02-26T03:08:53;6.10;;;2.33;;
7503;SDS011;3793;48.136;11.536;2024-02-26T03:11:20;2.60;;;2.10;;
7503;SDS011;3793;48.136;11.536;2024-02-26T03:13:48;2.27;;;2.07;;
7503;SDS011;3793;48.136;11.536;2024-02-26T03:16:15;2.30;;;2.10;;
7503;SDS011;3793;48.136;11.536;2024-02-26T03:18:43;6.03;;;2.40;;
7503;SDS011;3793;48.136;11.536;2024-02-26T03:21:09;2.40;;;2.03;;
7503;SDS011;3793;48.136;11.536;2024-02-26T03:23:36;3.97;;;2.30;;
7503;SDS011;3793;48.136;11.536;2024-02-26T03:26:03;4.10;;;2.10;;
7503;SDS011;3793;48.136;11.536;2024-02-26T03:28:30;2.20;;;2.00;;
7503;SDS011;3793;48.136;11.536;2024-02-26T03:30:59;2.47;;;1.80;;
7503;SDS011;3793;48.136;11.536;2024-02-26T03:33:27;4.23;;;2.30;;
7503;SDS011;3793;48.136;11.536;2024-02-26T03:35:53;2.30;;;2.07;;
7503;SDS011;3793;48.136;11.536;2024-02-26T03:38:19;3.13;;;2.30;;
7503;SDS011;3793;48.136;11.536;2024-02-26T03:40:45;2.50;;;2.30;;
7503;SDS011;3793;48.136;11.536;2024-02-26T03:43:12;2.77;;;2.10;;
7503;SDS011;3793;48.136;11.536;2024-02-26T03:45:39;3.80;;;2.23;;
7503;SDS011;3793;48.136;11.536;2024-02-26T03:48:07;2.27;;;2.03;;
7503;SDS011;3793;48.136;11.536;2024-02-26T03:50:34;2.90;;;2.13;;
7503;SDS011;3793;48.136;11.536;2024-02-26T03:53:01;3.53;;;2.60;;
7503;SDS011;3793;48.136;11.536;2024-02-26T03:55:27;2.73;;;1.87;;
7503;SDS011;3793;48.136;11.536;2024-02-26T03:57:54;4.37;;;1.90;;
7503;SDS011;3793;48.136;11.536;2024-02-26T04:00:21;2.73;;;2.03;;
7503;SDS011;3793;48.136;11.536;2024-02-26T04:02:47;2.77;;;2.03;;
7503;SDS011;3793;48.136;11.536;2024-02-26T04:05:15;2.27;;;2.03;;
7503;SDS011;3793;48.136;11.536;2024-02-26T04:07:42;3.93;;;2.37;;
7503;SDS011;3793;48.136;11.536;2024-02-26T04:10:09;3.07;;;2.13;;
7503;SDS011;3793;48.136;11.536;2024-02-26T04:12:37;2.80;;;2.20;;
7503;SDS011;3793;48.136;11.536;2024-02-26T04:15:04;3.20;;;2.27;;
7503;SDS011;3793;48.136;11.536;2024-02-26T04:17:31;3.33;;;2.20;;
7503;SDS011;3793;48.136;11.536;2024-02-26T04:19:58;2.70;;;1.90;;
7503;SDS011;3793;48.136;11.536;2024-02-26T04:22:26;2.80;;;1.80;;
7503;SDS011;3793;48.136;11.536;2024-02-26T04:24:53;2.83;;;2.20;;
7503;SDS011;3793;48.136;11.536;2024-02-26T04:27:19;4.47;;;1.90;;
7503;SDS011;3793;48.136;11.536;2024-02-26T04:29:46;3.63;;;1.80;;
7503;SDS011;3793;48.136;11.536;2024-02-26T04:32:12;2.07;;;1.73;;
7503;SDS011;3793;48.136;11.536;2024-02-26T04:34:39;2.00;;;1.80;;
7503;SDS011;3793;48.136;11.536;2024-02-26T04:37:07;2.80;;;1.73;;
7503;SDS011;3793;48.136;11.536;2024-02-26T04:39:35;2.00;;;1.80;;
7503;SDS011;3793;48.136;11.536;2024-02-26T04:42:02;2.27;;;1.90;;
7503;SDS011;3793;48.136;11.536;2024-02-26T04:44:29;3.60;;;1.80;;
7503;SDS011;3793;48.136;11.536;2024-02-26T04:46:55;2.80;;;1.90;;
7503;SDS011;3793;48.136;11.536;2024-02-26T04:49:22;2.83;;;1.80;;
7503;SDS011;3793;48.136;11.536;2024-02-26T04:51:49;2.20;;;1.87;;
7503;SDS011;3793;48.136;11.536;2024-02-26T04:54:15;3.10;;;1.93;;
7503;SDS011;3793;48.136;11.536;2024-02-26T04:56:43;3.53;;;1.83;;
7503;SDS011;3793;48.136;11.536;2024-02-26T04:59:10;2.53;;;1.83;;
7503;SDS011;3793;48.136;11.536;2024-02-26T05:01:37;1.93;;;1.73;;
7503;SDS011;3793;48.136;11.536;2024-02-26T05:04:04;2.10;;;1.70;;
7503;SDS011;3793;48.136;11.536;2024-02-26T05:06:30;1.90;;;1.70;;
7503;SDS011;3793;48.136;11.536;2024-02-26T05:08:57;5.67;;;1.87;;
7503;SDS011;3793;48.136;11.536;2024-02-26T05:11:24;2.67;;;2.13;;
7503;SDS011;3793;48.136;11.536;2024-02-26T05:13:52;2.77;;;1.80;;
7503;SDS011;3793;48.136;11.536;2024-02-26T05:16:19;2.67;;;1.90;;
7503;SDS011;3793;48.136;11.536;2024-02-26T05:18:46;2.70;;;1.50;;
7503;SDS011;3793;48.136;11.536;2024-02-26T05:21:13;3.80;;;1.83;;
7503;SDS011;3793;48.136;11.536;2024-02-26T05:23:39;2.90;;;1.90;;
7503;SDS011;3793;48.136;11.536;2024-02-26T05:26:08;1.93;;;1.70;;
7503;SDS011;3793;48.136;11.536;2024-02-26T05:28:34;2.97;;;1.90;;
7503;SDS011;3793;48.136;11.536;2024-02-26T05:31:04;2.13;;;1.80;;
7503;SDS011;3793;48.136;11.536;2024-02-26T05:33:30;2.30;;;1.80;;
7503;SDS011;3793;48.136;11.536;2024-02-26T05:35:57;2.80;;;1.60;;
7503;SDS011;3793;48.136;11.536;2024-02-26T05:38:29;1.87;;;1.50;;
7503;SDS011;3793;48.136;11.536;2024-02-26T05:40:56;2.40;;;1.60;;
7503;SDS011;3793;48.136;11.536;2024-02-26T05:43:23;1.50;;;1.40;;
7503;SDS011;3793;48.136;11.536;2024-02-26T05:45:50;2.10;;;1.50;;
7503;SDS011;3793;48.136;11.536;2024-02-26T05:48:18;1.87;;;1.60;;
7503;SDS011;3793;48.136;11.536;2024-02-26T05:50:45;1.60;;;1.50;;
7503;SDS011;3793;48.136;11.536;2024-02-26T05:53:12;3.27;;;1.80;;
7503;SDS011;3793;48.136;11.536;2024-02-26T05:55:39;1.53;;;1.40;;
7503;SDS011;3793;48.136;11.536;2024-02-26T05:58:13;2.63;;;1.87;;
7503;SDS011;3793;48.136;11.536;2024-02-26T06:00:40;1.90;;;1.50;;
7503;SDS011;3793;48.136;11.536;2024-02-26T06:03:06;1.30;;;1.20;;
7503;SDS011;3793;48.136;11.536;2024-02-26T06:05:35;2.00;;;1.50;;
7503;SDS011;3793;48.136;11.536;2024-02-26T06:08:01;1.87;;;1.50;;
7503;SDS011;3793;48.136;11.536;2024-02-26T06:10:29;2.10;;;1.73;;
7503;SDS011;3793;48.136;11.536;2024-02-26T06:12:56;1.80;;;1.60;;
7503;SDS011;3793;48.136;11.536;2024-02-26T06:15:23;3.57;;;1.67;;
7503;SDS011;3793;48.136;11.536;2024-02-26T06:17:49;2.37;;;1.80;;
7503;SDS011;3793;48.136;11.536;2024-02-26T06:20:16;2.50;;;1.63;;
7503;SDS011;3793;48.136;11.536;2024-02-26T06:22:44;2.33;;;1.60;;
7503;SDS011;3793;48.136;11.536;2024-02-26T06:25:11;3.47;;;1.60;;
7503;SDS011;3793;48.136;11.536;2024-02-26T06:27:37;2.40;;;1.67;;
7503;SDS011;3793;48.136;11.536;2024-02-26T06:30:04;3.27;;;1.93;;
7503;SDS011;3793;48.136;11.536;2024-02-26T06:32:31;2.83;;;1.90;;
7503;SDS011;3793;48.136;11.536;2024-02-26T06:34:58;4.20;;;1.70;;
7503;SDS011;3793;48.136;11.536;2024-02-26T06:37:24;2.80;;;1.83;;
7503;SDS011;3793;48.136;11.536;2024-02-26T06:39:53;5.03;;;2.10;;
7503;SDS011;3793;48.136;11.536;2024-02-26T06:42:19;4.20;;;1.70;;
7503;SDS011;3793;48.136;11.536;2024-02-26T06:44:46;6.37;;;2.00;;
7503;SDS011;3793;48.136;11.536;2024-02-26T06:47:12;3.00;;;1.83;;
7503;SDS011;3793;48.136;11.536;2024-02-26T06:49:39;2.37;;;1.70;;
7503;SDS011;3793;48.136;11.536;2024-02-26T06:52:06;7.17;;;2.20;;
7503;SDS011;3793;48.136;11.536;2024-02-26T06:54:32;4.10;;;1.87;;
7503;SDS011;3793;48.136;11.536;2024-02-26T06:57:00;1.77;;;1.67;;
7503;SDS011;3793;48.136;11.536;2024-02-26T06:59:27;1.67;;;1.40;;
7503;SDS011;3793;48.136;11.536;2024-02-26T07:01:54;8.43;;;1.83;;
7503;SDS011;3793;48.136;11.536;2024-02-26T07:04:20;2.73;;;1.60;;
7503;SDS011;3793;48.136;11.536;2024-02-26T07:06:48;3.80;;;1.90;;
7503;SDS011;3793;48.136;11.536;2024-02-26T07:09:14;5.07;;;2.10;;
7503;SDS011;3793;48.136;11.536;2024-02-26T07:11:41;7.40;;;1.93;;
7503;SDS011;3793;48.136;11.536;2024-02-26T07:14:10;5.17;;;2.00;;
7503;SDS011;3793;48.136;11.536;2024-02-26T07:16:36;6.43;;;2.10;;
7503;SDS011;3793;48.136;11.536;2024-02-26T07:19:03;3.03;;;1.93;;
7503;SDS011;3793;48.136;11.536;2024-02-26T07:21:30;2.27;;;1.70;;
7503;SDS011;3793;48.136;11.536;2024-02-26T07:23:56;2.63;;;2.23;;
7503;SDS011;3793;48.136;11.536;2024-02-26T07:26:23;7.03;;;2.37;;
7503;SDS011;3793;48.136;11.536;2024-02-26T07:28:51;4.10;;;2.30;;
7503;SDS011;3793;48.136;11.536;2024-02-26T07:31:19;3.53;;;2.40;;
7503;SDS011;3793;48.136;11.536;2024-02-26T07:33:46;7.33;;;2.23;;
7503;SDS011;3793;48.136;11.536;2024-02-26T07:36:12;5.87;;;2.73;;
7503;SDS011;3793;48.136;11.536;2024-02-26T07:38:39;4.57;;;2.10;;
7503;SDS011;3793;48.136;11.536;2024-02-26T07:41:06;3.20;;;2.10;;
7503;SDS011;3793;48.136;11.536;2024-02-26T07:43:32;3.03;;;2.00;;
7503;SDS011;3793;48.136;11.536;2024-02-26T07:45:59;3.63;;;1.80;;
7503;SDS011;3793;48.136;11.536;2024-02-26T07:48:27;2.83;;;2.10;;
7503;SDS011;3793;48.136;11.536;2024-02-26T07:50:54;6.90;;;2.67;;
7503;SDS011;3793;48.136;11.536;2024-02-26T07:53:23;6.30;;;2.20;;
7503;SDS011;3793;48.136;11.536;2024-02-26T07:55:53;4.07;;;1.77;;
7503;SDS011;3793;48.136;11.536;2024-02-26T07:58:20;2.77;;;2.07;;
7503;SDS011;3793;48.136;11.536;2024-02-26T08:00:46;2.60;;;1.63;;
7503;SDS011;3793;48.136;11.536;2024-02-26T08:03:14;7.90;;;2.03;;
7503;SDS011;3793;48.136;11.536;2024-02-26T08:05:42;3.80;;;2.20;;
7503;SDS011;3793;48.136;11.536;2024-02-26T08:08:09;3.70;;;1.97;;
7503;SDS011;3793;48.136;11.536;2024-02-26T08:10:35;5.47;;;2.10;;
7503;SDS011;3793;48.136;11.536;2024-02-26T08:13:02;4.00;;;2.03;;
7503;SDS011;3793;48.136;11.536;2024-02-26T08:15:31;5.93;;;2.40;;
7503;SDS011;3793;48.136;11.536;2024-02-26T08:17:57;5.70;;;2.60;;
7503;SDS011;3793;48.136;11.536;2024-02-26T08:20:25;4.10;;;2.57;;
7503;SDS011;3793;48.136;11.536;2024-02-26T08:22:53;4.20;;;2.03;;
7503;SDS011;3793;48.136;11.536;2024-02-26T08:25:20;3.40;;;2.63;;
7503;SDS011;3793;48.136;11.536;2024-02-26T08:27:47;4.83;;;2.33;;
7503;SDS011;3793;48.136;11.536;2024-02-26T08:30:14;6.67;;;2.70;;
7503;SDS011;3793;48.136;11.536;2024-02-26T08:32:42;5.83;;;2.50;;
7503;SDS011;3793;48.136;11.536;2024-02-26T08:35:09;5.00;;;1.93;;
7503;SDS011;3793;48.136;11.536;2024-02-26T08:37:36;3.77;;;1.97;;
7503;SDS011;3793;48.136;11.536;2024-02-26T08:40:07;2.57;;;1.93;;
7503;SDS011;3793;48.136;11.536;2024-02-26T08:42:34;5.70;;;2.33;;
7503;SDS011;3793;48.136;11.536;2024-02-26T08:45:01;3.77;;;2.27;;
7503;SDS011;3793;48.136;11.536;2024-02-26T08:47:28;2.83;;;2.00;;
7503;SDS011;3793;48.136;11.536;2024-02-26T08:49:55;9.20;;;2.20;;
7503;SDS011;3793;48.136;11.536;2024-02-26T08:52:22;2.67;;;1.73;;
7503;SDS011;3793;48.136;11.536;2024-02-26T08:54:48;5.23;;;1.90;;
7503;SDS011;3793;48.136;11.536;2024-02-26T08:57:17;3.90;;;1.80;;
7503;SDS011;3793;48.136;11.536;2024-02-26T08:59:44;5.87;;;2.00;;
7503;SDS011;3793;48.136;11.536;2024-02-26T09:02:10;2.87;;;1.70;;
7503;SDS011;3793;48.136;11.536;2024-02-26T09:04:37;7.70;;;2.03;;
7503;SDS011;3793;48.136;11.536;2024-02-26T09:07:04;3.90;;;2.10;;
7503;SDS011;3793;48.136;11.536;2024-02-26T09:09:31;5.83;;;2.00;;
7503;SDS011;3793;48.136;11.536;2024-02-26T09:11:58;6.53;;;2.20;;
7503;SDS011;3793;48.136;11.536;2024-02-26T09:14:26;3.80;;;2.00;;
7503;SDS011;3793;48.136;11.536;2024-02-26T09:16:53;3.83;;;2.30;;
7503;SDS011;3793;48.136;11.536;2024-02-26T09:19:19;3.80;;;1.93;;
7503;SDS011;3793;48.136;11.536;2024-02-26T09:22:03;4.53;;;2.07;;
7503;SDS011;3793;48.136;11.536;2024-02-26T09:24:30;5.57;;;2.30;;
7503;SDS011;3793;48.136;11.536;2024-02-26T09:26:56;10.43;;;3.10;;
7503;SDS011;3793;48.136;11.536;2024-02-26T09:29:23;10.87;;;3.57;;
7503;SDS011;3793;48.136;11.536;2024-02-26T09:31:51;8.30;;;2.97;;
7503;SDS011;3793;48.136;11.536;2024-02-26T09:34:18;8.37;;;3.33;;
7503;SDS011;3793;48.136;11.536;2024-02-26T09:36:45;7.93;;;2.73;;
7503;SDS011;3793;48.136;11.536;2024-02-26T09:39:13;9.00;;;3.57;;
7503;SDS011;3793;48.136;11.536;2024-02-26T09:41:45;9.27;;;3.37;;
7503;SDS011;3793;48.136;11.536;2024-02-26T09:44:12;6.50;;;2.80;;
7503;SDS011;3793;48.136;11.536;2024-02-26T09:46:41;6.17;;;2.73;;
7503;SDS011;3793;48.136;11.536;2024-02-26T09:49:08;6.03;;;2.47;;
7503;SDS011;3793;48.136;11.536;2024-02-26T09:51:36;15.97;;;2.73;;
7503;SDS011;3793;48.136;11.536;2024-02-26T09:54:03;5.37;;;2.50;;
7503;SDS011;3793;48.136;11.536;2024-02-26T09:56:31;6.00;;;2.13;;
7503;SDS011;3793;48.136;11.536;2024-02-26T09:58:58;5.77;;;2.00;;
7503;SDS011;3793;48.136;11.536;2024-02-26T10:01:25;4.47;;;1.40;;
7503;SDS011;3793;48.136;11.536;2024-02-26T10:03:54;3.53;;;1.80;;
7503;SDS011;3793;48.136;11.536;2024-02-26T10:06:21;9.30;;;2.40;;
7503;SDS011;3793;48.136;11.536;2024-02-26T10:08:48;4.27;;;1.93;;
7503;SDS011;3793;48.136;11.536;2024-02-26T10:11:15;7.37;;;2.33;;
7503;SDS011;3793;48.136;11.536;2024-02-26T10:13:43;4.60;;;2.30;;
7503;SDS011;3793;48.136;11.536;2024-02-26T10:16:10;4.63;;;2.60;;
7503;SDS011;3793;48.136;11.536;2024-02-26T10:21:22;3.53;;;2.10;;
7503;SDS011;3793;48.136;11.536;2024-02-26T10:23:49;6.50;;;2.33;;
7503;SDS011;3793;48.136;11.536;2024-02-26T10:26:16;3.17;;;2.20;;
7503;SDS011;3793;48.136;11.536;2024-02-26T10:28:44;4.60;;;1.90;;
7503;SDS011;3793;48.136;11.536;2024-02-26T10:31:13;4.03;;;2.00;;
7503;SDS011;3793;48.136;11.536;2024-02-26T10:33:40;3.77;;;2.00;;
7503;SDS011;3793;48.136;11.536;2024-02-26T10:36:07;4.40;;;2.10;;
7503;SDS011;3793;48.136;11.536;2024-02-26T10:38:34;4.37;;;2.30;;
7503;SDS011;3793;48.136;11.536;2024-02-26T10:41:01;8.53;;;2.13;;
7503;SDS011;3793;48.136;11.536;2024-02-26T10:43:28;5.77;;;1.80;;
7503;SDS011;3793;48.136;11.536;2024-02-26T10:45:56;3.27;;;1.63;;
7503;SDS011;3793;48.136;11.536;2024-02-26T10:48:23;3.43;;;1.40;;
7503;SDS011;3793;48.136;11.536;2024-02-26T10:50:50;3.33;;;1.90;;
7503;SDS011;3793;48.136;11.536;2024-02-26T10:53:19;3.33;;;1.93;;
7503;SDS011;3793;48.136;11.536;2024-02-26T10:55:48;2.63;;;1.57;;
7503;SDS011;3793;48.136;11.536;2024-02-26T10:58:15;4.23;;;1.70;;
7503;SDS011;3793;48.136;11.536;2024-02-26T11:00:43;6.07;;;1.70;;
7503;SDS011;3793;48.136;11.536;2024-02-26T11:03:12;1.90;;;1.37;;
7503;SDS011;3793;48.136;11.536;2024-02-26T11:05:38;3.20;;;1.50;;
7503;SDS011;3793;48.136;11.536;2024-02-26T11:08:06;2.33;;;1.33;;
7503;SDS011;3793;48.136;11.536;2024-02-26T11:10:33;1.60;;;1.50;;
7503;SDS011;3793;48.136;11.536;2024-02-26T11:13:00;3.03;;;1.10;;
7503;SDS011;3793;48.136;11.536;2024-02-26T11:15:27;2.90;;;1.30;;
7503;SDS011;3793;48.136;11.536;2024-02-26T11:17:56;1.20;;;1.10;;
7503;SDS011;3793;48.136;11.536;2024-02-26T11:20:24;2.00;;;1.33;;
7503;SDS011;3793;48.136;11.536;2024-02-26T11:22:54;3.00;;;1.33;;
7503;SDS011;3793;48.136;11.536;2024-02-26T11:25:21;3.37;;;1.53;;
7503;SDS011;3793;48.136;11.536;2024-02-26T11:27:49;3.93;;;1.20;;
7503;SDS011;3793;48.136;11.536;2024-02-26T11:30:16;1.20;;;1.10;;
7503;SDS011;3793;48.136;11.536;2024-02-26T11:32:44;3.87;;;1.30;;
7503;SDS011;3793;48.136;11.536;2024-02-26T11:35:11;2.37;;;1.40;;
7503;SDS011;3793;48.136;11.536;2024-02-26T11:37:41;4.90;;;1.47;;
7503;SDS011;3793;48.136;11.536;2024-02-26T11:40:17;3.03;;;1.50;;
7503;SDS011;3793;48.136;11.536;2024-02-26T11:42:44;1.27;;;1.17;;
7503;SDS011;3793;48.136;11.536;2024-02-26T11:47:55;1.77;;;1.53;;
7503;SDS011;3793;48.136;11.536;2024-02-26T11:53:21;2.43;;;1.73;;
7503;SDS011;3793;48.136;11.536;2024-02-26T11:55:48;3.13;;;1.73;;
7503;SDS011;3793;48.136;11.536;2024-02-26T11:58:15;1.23;;;1.13;;
7503;SDS011;3793;48.136;11.536;2024-02-26T12:00:42;1.20;;;1.10;;
7503;SDS011;3793;48.136;11.536;2024-02-26T12:03:09;0.87;;;0.87;;
7503;SDS011;3793;48.136;11.536;2024-02-26T12:05:37;1.90;;;1.00;;
7503;SDS011;3793;48.136;11.536;2024-02-26T12:08:04;2.37;;;1.10;;
7503;SDS011;3793;48.136;11.536;2024-02-26T12:10:35;2.27;;;1.07;;
7503;SDS011;3793;48.136;11.536;2024-02-26T12:13:04;3.23;;;1.37;;
7503;SDS011;3793;48.136;11.536;2024-02-26T12:15:39;1.93;;;1.60;;
7503;SDS011;3793;48.136;11.536;2024-02-26T12:18:15;1.90;;;0.93;;
7503;SDS011;3793;48.136;11.536;2024-02-26T12:20:42;6.07;;;1.30;;
7503;SDS011;3793;48.136;11.536;2024-02-26T12:23:13;3.07;;;1.10;;
7503;SDS011;3793;48.136;11.536;2024-02-26T12:25:43;1.70;;;1.20;;
7503;SDS011;3793;48.136;11.536;2024-02-26T12:28:13;1.10;;;1.00;;
7503;SDS011;3793;48.136;11.536;2024-02-26T12:30:40;1.07;;;0.90;;
7503;SDS011;3793;48.136;11.536;2024-02-26T12:33:07;1.60;;;1.00;;
7503;SDS011;3793;48.136;11.536;2024-02-26T12:35:34;2.73;;;1.17;;
7503;SDS011;3793;48.136;11.536;2024-02-26T12:38:01;2.53;;;1.17;;
7503;SDS011;3793;48.136;11.536;2024-02-26T12:40:29;1.33;;;1.10;;
7503;SDS011;3793;48.136;11.536;2024-02-26T12:42:57;1.60;;;1.40;;
7503;SDS011;3793;48.136;11.536;2024-02-26T12:45:24;1.67;;;1.13;;
7503;SDS011;3793;48.136;11.536;2024-02-26T12:47:52;2.83;;;1.30;;
7503;SDS011;3793;48.136;11.536;2024-02-26T12:50:19;2.70;;;1.20;;
7503;SDS011;3793;48.136;11.536;2024-02-26T12:52:46;1.23;;;0.80;;
7503;SDS011;3793;48.136;11.536;2024-02-26T12:55:14;2.87;;;1.10;;
7503;SDS011;3793;48.136;11.536;2024-02-26T12:57:41;2.07;;;1.10;;
7503;SDS011;3793;48.136;11.536;2024-02-26T13:00:12;0.70;;;0.70;;
7503;SDS011;3793;48.136;11.536;2024-02-26T13:02:39;0.77;;;0.60;;
7503;SDS011;3793;48.136;11.536;2024-02-26T13:05:08;0.67;;;0.67;;
7503;SDS011;3793;48.136;11.536;2024-02-26T13:07:34;0.77;;;0.77;;
7503;SDS011;3793;48.136;11.536;2024-02-26T13:10:06;1.37;;;1.10;;
7503;SDS011;3793;48.136;11.536;2024-02-26T13:12:33;2.70;;;1.10;;
7503;SDS011;3793;48.136;11.536;2024-02-26T13:15:00;2.80;;;0.97;;
7503;SDS011;3793;48.136;11.536;2024-02-26T13:17:28;1.37;;;1.17;;
7503;SDS011;3793;48.136;11.536;2024-02-26T13:19:57;1.87;;;1.67;;
7503;SDS011;3793;48.136;11.536;2024-02-26T13:22:24;1.50;;;1.00;;
7503;SDS011;3793;48.136;11.536;2024-02-26T13:24:54;1.50;;;0.90;;
7503;SDS011;3793;48.136;11.536;2024-02-26T13:27:22;1.80;;;1.00;;
7503;SDS011;3793;48.136;11.536;2024-02-26T13:29:48;1.13;;;0.90;;
7503;SDS011;3793;48.136;11.536;2024-02-26T13:32:15;1.43;;;1.20;;
7503;SDS011;3793;48.136;11.536;2024-02-26T13:34:43;1.48;;;1.05;;
7503;SDS011;3793;48.136;11.536;2024-02-26T13:37:10;1.85;;;1.40;;
7503;SDS011;3793;48.136;11.536;2024-02-26T13:39:36;2.50;;;1.73;;
7503;SDS011;3793;48.136;11.536;2024-02-26T13:42:06;2.90;;;1.98;;
7503;SDS011;3793;48.136;11.536;2024-02-26T13:44:33;1.97;;;1.50;;
7503;SDS011;3793;48.136;11.536;2024-02-26T13:47:04;2.23;;;1.83;;
7503;SDS011;3793;48.136;11.536;2024-02-26T13:49:31;1.37;;;1.27;;
7503;SDS011;3793;48.136;11.536;2024-02-26T13:51:59;2.83;;;1.77;;
7503;SDS011;3793;48.136;11.536;2024-02-26T13:54:26;3.23;;;1.73;;
7503;SDS011;3793;48.136;11.536;2024-02-26T13:56:53;1.77;;;1.27;;
7503;SDS011;3793;48.136;11.536;2024-02-26T13:59:19;2.10;;;1.17;;
7503;SDS011;3793;48.136;11.536;2024-02-26T14:01:46;1.50;;;1.00;;
7503;SDS011;3793;48.136;11.536;2024-02-26T14:04:12;0.97;;;0.90;;
7503;SDS011;3793;48.136;11.536;2024-02-26T14:06:39;1.60;;;1.23;;
7503;SDS011;3793;48.136;11.536;2024-02-26T14:09:07;1.07;;;0.97;;
7503;SDS011;3793;48.136;11.536;2024-02-26T14:11:34;1.20;;;0.80;;
7503;SDS011;3793;48.136;11.536;2024-02-26T14:14:01;0.70;;;0.67;;
7503;SDS011;3793;48.136;11.536;2024-02-26T14:16:28;1.33;;;0.90;;
7503;SDS011;3793;48.136;11.536;2024-02-26T14:18:55;2.97;;;0.97;;
7503;SDS011;3793;48.136;11.536;2024-02-26T14:21:30;1.50;;;1.00;;
7503;SDS011;3793;48.136;11.536;2024-02-26T14:24:00;1.27;;;1.03;;
7503;SDS011;3793;48.136;11.536;2024-02-26T14:26:29;1.13;;;0.90;;
7503;SDS011;3793;48.136;11.536;2024-02-26T14:28:56;1.57;;;1.43;;
7503;SDS011;3793;48.136;11.536;2024-02-26T14:31:31;2.60;;;1.33;;
7503;SDS011;3793;48.136;11.536;2024-02-26T14:33:58;2.87;;;1.83;;
7503;SDS011;3793;48.136;11.536;2024-02-26T14:36:25;3.37;;;1.63;;
7503;SDS011;3793;48.136;11.536;2024-02-26T14:38:52;4.30;;;1.33;;
7503;SDS011;3793;48.136;11.536;2024-02-26T14:41:18;2.03;;;1.40;;
7503;SDS011;3793;48.136;11.536;2024-02-26T14:43:46;3.57;;;1.70;;
7503;SDS011;3793;48.136;11.536;2024-02-26T14:46:13;4.47;;;1.73;;
7503;SDS011;3793;48.136;11.536;2024-02-26T14:48:40;2.60;;;1.57;;
7503;SDS011;3793;48.136;11.536;2024-02-26T14:51:06;2.87;;;1.87;;
7503;SDS011;3793;48.136;11.536;2024-02-26T14:53:33;2.33;;;1.70;;
7503;SDS011;3793;48.136;11.536;2024-02-26T14:56:00;2.33;;;1.57;;
7503;SDS011;3793;48.136;11.536;2024-02-26T14:58:27;6.30;;;2.13;;
7503;SDS011;3793;48.136;11.536;2024-02-26T15:00:55;2.13;;;1.70;;
7503;SDS011;3793;48.136;11.536;2024-02-26T15:03:22;2.53;;;2.00;;
7503;SDS011;3793;48.136;11.536;2024-02-26T15:05:48;5.17;;;2.70;;
7503;SDS011;3793;48.136;11.536;2024-02-26T15:08:15;3.30;;;1.93;;